Time;durP1;ratioP1;P1;durP2;ratioP2;P2;SDS_P1;SDS_P2;PMS_P1;PMS_P2;Temp;Humidity;BMP_temperature;BMP_pressure;BME280_temperature;BME280_humidity;BME280_pressure;Samples;Min_cycle;Max_cycle;Signal;HPM_P1;HPM_P2
2022/11/08 00:02:26;;;;;;;1.40;1.20;;;;;;;;;;5073420;28;20200;-87
2022/11/08 00:04:55;;;;;;;2.75;1.70;;;;;;;;;;5073749;28;20300;-86
2022/11/08 00:15:39;;;;;;;1.10;1.00;;;;;;;;;;5073373;28;20235;-87
2022/11/08 00:18:07;;;;;;;1.63;1.15;;;;;;;;;;5073556;28;20314;-87
2022/11/08 00:20:36;;;;;;;1.33;1.10;;;;;;;;;;5073617;28;20291;-88
2022/11/08 00:23:04;;;;;;;1.30;1.20;;;;;;;;;;5073626;28;20193;-86
2022/11/08 00:25:54;;;;;;;2.83;1.40;;;;;;;;;;5073036;28;20303;-87
2022/11/08 00:28:22;;;;;;;2.63;1.33;;;;;;;;;;5073221;28;20291;-86
2022/11/08 00:30:49;;;;;;;2.65;1.70;;;;;;;;;;5073944;28;20204;-86
2022/11/08 00:33:17;;;;;;;1.60;1.50;;;;;;;;;;5074827;28;20255;-87
2022/11/08 00:35:46;;;;;;;1.95;1.20;;;;;;;;;;5073775;28;20220;-87
2022/11/08 00:38:13;;;;;;;1.98;1.58;;;;;;;;;;5073142;28;20216;-87
2022/11/08 00:40:41;;;;;;;1.50;1.40;;;;;;;;;;5073250;28;20638;-87
2022/11/08 00:43:08;;;;;;;6.75;2.78;;;;;;;;;;5073516;28;20316;-87
2022/11/08 00:45:36;;;;;;;1.63;1.30;;;;;;;;;;5072671;28;20229;-87
2022/11/08 00:48:03;;;;;;;3.10;1.63;;;;;;;;;;5072915;28;20308;-87
2022/11/08 00:50:31;;;;;;;3.47;1.63;;;;;;;;;;5072932;28;20280;-87
2022/11/08 00:53:00;;;;;;;4.03;2.00;;;;;;;;;;5073016;28;20197;-87
2022/11/08 00:55:27;;;;;;;3.83;1.60;;;;;;;;;;5073035;28;20284;-87
2022/11/08 00:57:55;;;;;;;3.15;2.22;;;;;;;;;;5073908;28;20328;-88
2022/11/08 01:00:41;;;;;;;3.03;2.40;;;;;;;;;;5073162;28;20605;-86
2022/11/08 01:03:21;;;;;;;4.32;2.08;;;;;;;;;;5073018;28;20729;-88
2022/11/08 01:05:49;;;;;;;2.63;1.92;;;;;;;;;;5073445;28;20299;-87
2022/11/08 01:08:20;;;;;;;3.60;1.77;;;;;;;;;;5072789;28;20384;-87
2022/11/08 01:10:49;;;;;;;3.38;1.83;;;;;;;;;;5074399;28;20237;-86
2022/11/08 01:13:19;;;;;;;4.10;1.70;;;;;;;;;;5076899;28;20288;-86
2022/11/08 01:15:47;;;;;;;2.03;1.65;;;;;;;;;;5077401;28;20254;-86
2022/11/08 01:18:16;;;;;;;1.67;1.27;;;;;;;;;;5076622;28;20225;-87
2022/11/08 01:20:47;;;;;;;1.73;1.60;;;;;;;;;;5076819;28;20234;-86
2022/11/08 01:23:17;;;;;;;2.28;1.30;;;;;;;;;;5076862;28;20288;-86
2022/11/08 01:25:46;;;;;;;1.85;1.27;;;;;;;;;;5076966;28;20244;-86
2022/11/08 01:28:14;;;;;;;1.95;1.48;;;;;;;;;;5076539;28;20217;-86
2022/11/08 01:30:44;;;;;;;1.52;1.40;;;;;;;;;;5076750;28;20292;-86
2022/11/08 01:33:12;;;;;;;2.38;2.03;;;;;;;;;;5076768;28;20221;-88
2022/11/08 01:35:40;;;;;;;2.80;1.98;;;;;;;;;;5076675;28;20197;-86
2022/11/08 01:38:19;;;;;;;3.20;1.80;;;;;;;;;;5076384;28;20254;-87
2022/11/08 01:40:48;;;;;;;2.83;2.45;;;;;;;;;;5077285;28;20351;-87
2022/11/08 01:43:37;;;;;;;3.33;1.73;;;;;;;;;;5076419;28;20197;-86
2022/11/08 01:46:45;;;;;;;2.83;1.92;;;;;;;;;;5076477;28;20220;-87
2022/11/08 01:49:42;;;;;;;2.40;1.60;;;;;;;;;;5076269;28;20642;-87
2022/11/08 01:53:03;;;;;;;1.70;1.50;;;;;;;;;;5076186;28;20641;-86
2022/11/08 01:55:36;;;;;;;2.17;1.55;;;;;;;;;;5076278;28;20189;-86
2022/11/08 01:58:06;;;;;;;1.88;1.63;;;;;;;;;;5075802;28;20229;-87
2022/11/08 02:00:35;;;;;;;2.83;1.73;;;;;;;;;;5076148;28;20568;-87
2022/11/08 02:03:05;;;;;;;3.67;2.13;;;;;;;;;;5076342;28;20291;-88
2022/11/08 02:05:34;;;;;;;3.85;1.80;;;;;;;;;;5076085;28;20347;-87
2022/11/08 02:08:05;;;;;;;2.22;1.90;;;;;;;;;;5075819;28;20304;-87
2022/11/08 02:10:37;;;;;;;1.75;1.50;;;;;;;;;;5075149;28;20197;-87
2022/11/08 02:13:08;;;;;;;3.75;1.67;;;;;;;;;;5075762;28;20216;-86
2022/11/08 02:15:59;;;;;;;2.60;2.10;;;;;;;;;;5076011;28;20196;-86
2022/11/08 02:18:30;;;;;;;3.22;2.47;;;;;;;;;;5075793;28;20223;-87
2022/11/08 02:21:03;;;;;;;2.78;1.92;;;;;;;;;;5075603;28;20189;-87
2022/11/08 02:23:46;;;;;;;2.00;1.80;;;;;;;;;;5075864;28;20828;-88
2022/11/08 02:26:15;;;;;;;2.45;2.15;;;;;;;;;;5075640;28;20308;-86
2022/11/08 02:28:44;;;;;;;1.80;1.70;;;;;;;;;;5072610;22;20742;-82
2022/11/08 02:31:13;;;;;;;2.22;2.03;;;;;;;;;;5042058;28;20303;-83
2022/11/08 02:33:41;;;;;;;2.05;1.65;;;;;;;;;;5041985;28;20258;-82
2022/11/08 02:36:12;;;;;;;2.55;1.75;;;;;;;;;;5042501;28;20664;-82
2022/11/08 02:38:43;;;;;;;1.30;1.20;;;;;;;;;;5042975;28;20234;-82
2022/11/08 02:41:11;;;;;;;2.30;2.03;;;;;;;;;;5041803;28;20292;-82
2022/11/08 02:43:40;;;;;;;2.20;1.48;;;;;;;;;;5041781;28;20361;-82
2022/11/08 02:46:12;;;;;;;1.88;1.65;;;;;;;;;;5042629;28;20341;-82
2022/11/08 02:48:39;;;;;;;1.50;1.40;;;;;;;;;;5042980;28;20186;-81
2022/11/08 02:51:07;;;;;;;1.80;1.60;;;;;;;;;;5042471;28;20258;-82
2022/11/08 02:53:34;;;;;;;3.25;1.95;;;;;;;;;;5042304;28;20309;-82
2022/11/08 02:56:02;;;;;;;2.40;2.20;;;;;;;;;;5043105;28;20234;-83
2022/11/08 02:58:31;;;;;;;1.80;1.65;;;;;;;;;;5041179;28;20235;-83
2022/11/08 03:01:00;;;;;;;1.80;1.70;;;;;;;;;;5040541;28;20683;-83
2022/11/08 03:03:28;;;;;;;2.58;1.45;;;;;;;;;;5039384;28;20226;-86
2022/11/08 03:05:57;;;;;;;1.85;1.70;;;;;;;;;;5039760;28;20230;-86
2022/11/08 03:08:24;;;;;;;5.15;2.00;;;;;;;;;;5039242;28;20237;-83
2022/11/08 03:10:53;;;;;;;2.88;1.85;;;;;;;;;;5039408;28;20242;-86
2022/11/08 03:13:21;;;;;;;2.10;1.50;;;;;;;;;;5038663;28;20237;-82
2022/11/08 03:15:50;;;;;;;2.05;1.65;;;;;;;;;;5039197;28;20237;-84
2022/11/08 03:18:17;;;;;;;1.75;1.42;;;;;;;;;;5038213;28;20238;-81
2022/11/08 03:20:45;;;;;;;2.10;1.90;;;;;;;;;;5039209;28;20256;-83
2022/11/08 03:23:12;;;;;;;1.58;1.45;;;;;;;;;;5040017;28;20226;-83
2022/11/08 03:25:40;;;;;;;1.92;1.52;;;;;;;;;;5039202;28;20206;-82
2022/11/08 03:28:09;;;;;;;2.88;2.53;;;;;;;;;;5039661;28;20264;-82
2022/11/08 03:30:37;;;;;;;2.35;2.15;;;;;;;;;;5039798;28;20245;-83
2022/11/08 03:33:06;;;;;;;1.88;1.77;;;;;;;;;;5038945;28;20653;-83
2022/11/08 03:35:33;;;;;;;1.50;1.40;;;;;;;;;;5039613;28;20218;-84
2022/11/08 03:38:01;;;;;;;2.22;1.73;;;;;;;;;;5040149;28;20673;-83
2022/11/08 03:40:28;;;;;;;5.72;2.30;;;;;;;;;;5040431;28;20353;-83
2022/11/08 03:42:57;;;;;;;1.90;1.80;;;;;;;;;;5040623;28;20233;-83
2022/11/08 03:45:24;;;;;;;2.75;1.92;;;;;;;;;;5040010;28;20221;-85
2022/11/08 03:47:52;;;;;;;3.63;1.92;;;;;;;;;;5039249;28;20232;-84
2022/11/08 03:50:20;;;;;;;4.00;1.98;;;;;;;;;;5040083;28;20199;-82
2022/11/08 03:52:52;;;;;;;1.90;1.70;;;;;;;;;;5038239;28;20307;-82
2022/11/08 03:55:23;;;;;;;1.30;1.20;;;;;;;;;;5038720;28;20222;-83
2022/11/08 03:57:51;;;;;;;2.33;1.88;;;;;;;;;;5039499;28;20214;-85
2022/11/08 04:00:21;;;;;;;2.17;1.80;;;;;;;;;;5040880;28;20238;-85
2022/11/08 04:02:49;;;;;;;3.15;1.67;;;;;;;;;;5040345;28;20242;-85
2022/11/08 04:05:17;;;;;;;4.45;2.38;;;;;;;;;;5040220;28;20270;-85
2022/11/08 04:07:46;;;;;;;3.50;2.10;;;;;;;;;;5039793;28;20314;-85
2022/11/08 04:10:14;;;;;;;5.10;3.58;;;;;;;;;;5040337;28;20253;-82
2022/11/08 04:15:28;;;;;;;1.38;1.27;;;;;;;;;;5038576;28;20212;-83
2022/11/08 04:23:30;;;;;;;1.52;1.42;;;;;;;;;;5039349;28;20216;-82
2022/11/08 04:26:00;;;;;;;3.50;2.03;;;;;;;;;;5040037;28;20222;-83
2022/11/08 04:28:29;;;;;;;1.52;1.42;;;;;;;;;;5039693;28;20813;-85
2022/11/08 04:30:58;;;;;;;2.40;1.38;;;;;;;;;;5040200;28;20292;-84
2022/11/08 04:33:26;;;;;;;2.00;1.60;;;;;;;;;;5040049;28;20313;-84
2022/11/08 04:35:54;;;;;;;1.90;1.75;;;;;;;;;;5040530;28;20229;-84
2022/11/08 04:38:22;;;;;;;2.30;1.58;;;;;;;;;;5040777;28;20205;-86
2022/11/08 04:40:51;;;;;;;3.08;2.35;;;;;;;;;;5042905;28;20206;-85
2022/11/08 04:43:18;;;;;;;1.88;1.70;;;;;;;;;;5042095;28;20702;-85
2022/11/08 04:45:46;;;;;;;3.20;2.03;;;;;;;;;;5039479;28;20726;-84
2022/11/08 04:48:13;;;;;;;2.47;1.98;;;;;;;;;;5039644;28;20223;-86
2022/11/08 04:50:41;;;;;;;3.20;2.28;;;;;;;;;;5040309;28;20238;-86
2022/11/08 04:53:09;;;;;;;1.80;1.70;;;;;;;;;;5040727;28;20360;-86
2022/11/08 04:55:36;;;;;;;3.50;2.03;;;;;;;;;;5040410;28;20202;-83
2022/11/08 04:58:05;;;;;;;2.65;2.05;;;;;;;;;;5040480;28;20211;-86
2022/11/08 05:00:33;;;;;;;1.40;1.30;;;;;;;;;;5040641;28;20836;-84
2022/11/08 05:03:02;;;;;;;1.20;1.10;;;;;;;;;;5040431;28;20309;-85
2022/11/08 05:05:30;;;;;;;0.90;0.90;;;;;;;;;;5039395;28;20277;-83
2022/11/08 05:07:57;;;;;;;1.73;1.42;;;;;;;;;;5040616;28;20790;-83
2022/11/08 05:10:25;;;;;;;2.85;1.48;;;;;;;;;;5040644;28;20202;-84
2022/11/08 05:12:57;;;;;;;1.83;1.40;;;;;;;;;;5040849;28;20336;-85
2022/11/08 05:15:25;;;;;;;1.38;1.27;;;;;;;;;;5041143;28;20186;-86
2022/11/08 05:17:53;;;;;;;1.63;1.50;;;;;;;;;;5041382;28;20198;-86
2022/11/08 05:23:24;;;;;;;2.40;1.17;;;;;;;;;;5038239;28;20273;-86
2022/11/08 05:25:52;;;;;;;1.20;1.10;;;;;;;;;;5035883;28;20361;-84
2022/11/08 05:28:19;;;;;;;1.70;1.00;;;;;;;;;;5035024;28;20313;-85
2022/11/08 05:30:55;;;;;;;1.15;1.05;;;;;;;;;;5035914;28;20639;-83
2022/11/08 05:33:23;;;;;;;1.98;1.50;;;;;;;;;;5035837;28;20304;-83
2022/11/08 05:35:50;;;;;;;1.75;1.33;;;;;;;;;;5035748;28;20206;-83
2022/11/08 05:38:18;;;;;;;1.40;1.30;;;;;;;;;;5033874;28;20208;-84
2022/11/08 05:40:46;;;;;;;1.70;1.50;;;;;;;;;;5034705;28;20297;-83
2022/11/08 05:43:13;;;;;;;1.58;1.42;;;;;;;;;;5033588;28;20273;-83
2022/11/08 05:45:41;;;;;;;2.08;1.75;;;;;;;;;;5033156;28;20198;-82
2022/11/08 05:48:10;;;;;;;2.15;1.75;;;;;;;;;;5033953;28;20280;-83
2022/11/08 05:50:37;;;;;;;1.52;1.20;;;;;;;;;;5034926;28;20265;-85
2022/11/08 05:53:05;;;;;;;2.63;1.60;;;;;;;;;;5032999;28;20703;-83
2022/11/08 05:55:32;;;;;;;1.35;1.25;;;;;;;;;;5033586;28;20293;-84
2022/11/08 05:58:00;;;;;;;2.00;1.63;;;;;;;;;;5036249;28;20289;-85
2022/11/08 06:00:28;;;;;;;1.60;1.42;;;;;;;;;;5036995;28;20297;-82
2022/11/08 06:02:55;;;;;;;6.28;2.20;;;;;;;;;;5037321;28;20604;-83
2022/11/08 06:05:24;;;;;;;3.47;1.58;;;;;;;;;;5037436;28;20738;-84
2022/11/08 06:07:53;;;;;;;1.40;1.30;;;;;;;;;;5037057;28;20313;-84
2022/11/08 06:10:21;;;;;;;1.40;1.30;;;;;;;;;;5037462;28;20710;-82
2022/11/08 06:12:49;;;;;;;1.20;1.10;;;;;;;;;;5037231;28;20222;-84
2022/11/08 06:15:16;;;;;;;1.55;1.45;;;;;;;;;;5036493;28;20289;-85
2022/11/08 06:17:44;;;;;;;1.80;1.52;;;;;;;;;;5037060;28;20293;-83
2022/11/08 06:20:12;;;;;;;2.80;1.50;;;;;;;;;;5036915;28;20746;-83
2022/11/08 06:22:42;;;;;;;1.88;1.63;;;;;;;;;;5037497;28;20233;-83
2022/11/08 06:25:10;;;;;;;1.50;1.40;;;;;;;;;;5038462;28;20301;-83
2022/11/08 06:27:37;;;;;;;2.40;1.85;;;;;;;;;;5037765;28;20260;-83
2022/11/08 06:30:13;;;;;;;2.22;1.60;;;;;;;;;;5037681;28;20230;-85
2022/11/08 06:32:41;;;;;;;2.00;1.65;;;;;;;;;;5040915;28;20312;-85
2022/11/08 06:35:09;;;;;;;2.03;1.73;;;;;;;;;;5037883;28;20202;-84
2022/11/08 06:37:37;;;;;;;1.35;1.35;;;;;;;;;;5037857;28;20358;-84
2022/11/08 06:40:07;;;;;;;2.10;1.58;;;;;;;;;;5038152;28;20289;-81
2022/11/08 06:42:35;;;;;;;2.00;1.33;;;;;;;;;;5037706;28;20293;-82
2022/11/08 06:45:02;;;;;;;1.67;1.48;;;;;;;;;;5037046;28;20204;-82
2022/11/08 06:47:30;;;;;;;2.17;1.65;;;;;;;;;;5038633;28;20230;-82
2022/11/08 06:49:57;;;;;;;1.90;1.52;;;;;;;;;;5056791;28;20228;-83
2022/11/08 06:52:24;;;;;;;2.42;1.45;;;;;;;;;;5056877;28;20269;-83
2022/11/08 06:54:53;;;;;;;3.83;2.90;;;;;;;;;;5057246;28;20292;-84
2022/11/08 06:57:21;;;;;;;2.22;1.65;;;;;;;;;;5057151;28;20205;-83
2022/11/08 06:59:49;;;;;;;2.58;1.60;;;;;;;;;;5056516;28;20274;-85
2022/11/08 07:02:16;;;;;;;2.05;1.85;;;;;;;;;;5056958;28;20206;-87
2022/11/08 07:04:44;;;;;;;3.17;2.50;;;;;;;;;;5056988;28;20312;-87
2022/11/08 07:07:11;;;;;;;1.27;1.17;;;;;;;;;;5056354;28;20205;-86
2022/11/08 07:09:39;;;;;;;1.25;1.15;;;;;;;;;;5055484;28;20312;-85
2022/11/08 07:12:07;;;;;;;3.03;1.77;;;;;;;;;;5056379;28;20296;-84
2022/11/08 07:14:36;;;;;;;2.50;1.50;;;;;;;;;;5056402;28;20222;-84
2022/11/08 07:17:03;;;;;;;1.83;1.70;;;;;;;;;;5056230;28;20288;-87
2022/11/08 07:19:31;;;;;;;1.90;1.80;;;;;;;;;;5056448;28;20722;-83
2022/11/08 07:21:59;;;;;;;1.85;1.70;;;;;;;;;;5056835;28;20233;-85
2022/11/08 07:24:26;;;;;;;2.30;1.30;;;;;;;;;;5056328;28;20668;-83
2022/11/08 07:26:53;;;;;;;2.70;1.92;;;;;;;;;;5056758;28;20297;-86
2022/11/08 07:29:21;;;;;;;1.92;1.60;;;;;;;;;;5057035;28;20201;-85
2022/11/08 07:31:50;;;;;;;2.13;1.90;;;;;;;;;;5057471;28;20631;-85
2022/11/08 07:34:17;;;;;;;2.92;1.80;;;;;;;;;;5056804;28;20264;-84
2022/11/08 07:36:45;;;;;;;3.03;2.38;;;;;;;;;;5056896;28;20202;-83
2022/11/08 07:39:14;;;;;;;3.67;2.38;;;;;;;;;;5055780;28;20202;-84
2022/11/08 07:41:42;;;;;;;5.07;1.95;;;;;;;;;;5055809;28;20288;-82
2022/11/08 07:44:09;;;;;;;3.22;1.92;;;;;;;;;;5056270;28;20652;-83
2022/11/08 07:46:37;;;;;;;2.92;1.92;;;;;;;;;;5055619;28;20292;-83
2022/11/08 07:49:06;;;;;;;1.83;1.73;;;;;;;;;;5055864;28;20363;-85
2022/11/08 07:51:33;;;;;;;2.20;1.92;;;;;;;;;;5055380;28;20233;-83
2022/11/08 07:54:01;;;;;;;1.65;1.55;;;;;;;;;;5055719;28;20257;-83
2022/11/08 07:56:28;;;;;;;2.47;1.90;;;;;;;;;;5055515;28;20280;-82
2022/11/08 07:58:56;;;;;;;3.20;2.90;;;;;;;;;;5056464;28;20264;-81
2022/11/08 08:01:23;;;;;;;2.95;2.10;;;;;;;;;;5043376;28;20208;-85
2022/11/08 08:03:51;;;;;;;1.60;1.50;;;;;;;;;;5034941;28;20285;-85
2022/11/08 08:06:19;;;;;;;1.63;1.45;;;;;;;;;;5035923;28;20266;-84
2022/11/08 08:08:47;;;;;;;1.60;1.50;;;;;;;;;;5035547;28;20293;-84
2022/11/08 08:11:14;;;;;;;4.00;1.98;;;;;;;;;;5034884;28;20293;-85
2022/11/08 08:13:42;;;;;;;2.92;1.60;;;;;;;;;;5035288;28;20319;-83
2022/11/08 08:16:09;;;;;;;2.03;1.70;;;;;;;;;;5034390;28;20294;-84
2022/11/08 08:18:37;;;;;;;4.32;1.67;;;;;;;;;;5035032;28;20344;-84
2022/11/08 08:21:05;;;;;;;3.38;1.60;;;;;;;;;;5034644;28;20298;-85
2022/11/08 08:23:33;;;;;;;2.35;2.15;;;;;;;;;;5035714;28;20313;-83
2022/11/08 08:26:02;;;;;;;2.38;1.88;;;;;;;;;;5035569;28;20732;-83
2022/11/08 08:28:30;;;;;;;1.77;1.60;;;;;;;;;;5035056;28;20218;-83
2022/11/08 08:30:57;;;;;;;3.25;1.83;;;;;;;;;;5034920;28;20765;-85
2022/11/08 08:33:25;;;;;;;2.30;2.10;;;;;;;;;;5034303;28;20652;-84
2022/11/08 08:35:53;;;;;;;2.50;1.50;;;;;;;;;;5034823;28;20210;-85
2022/11/08 08:38:21;;;;;;;1.98;1.20;;;;;;;;;;5035259;28;20289;-84
2022/11/08 08:40:50;;;;;;;1.92;1.30;;;;;;;;;;5035053;28;20332;-82
2022/11/08 08:43:17;;;;;;;2.45;1.40;;;;;;;;;;5036069;28;20311;-83
2022/11/08 08:45:45;;;;;;;1.63;1.10;;;;;;;;;;5035337;28;20579;-83
2022/11/08 08:48:12;;;;;;;1.40;1.05;;;;;;;;;;5034686;28;20872;-83
2022/11/08 08:50:41;;;;;;;1.45;1.35;;;;;;;;;;5035410;28;20313;-83
2022/11/08 08:53:09;;;;;;;1.15;1.05;;;;;;;;;;5035133;28;20767;-80
2022/11/08 08:55:38;;;;;;;1.20;0.90;;;;;;;;;;5035507;28;20288;-83
2022/11/08 08:58:06;;;;;;;0.80;0.80;;;;;;;;;;5033753;28;20289;-82
2022/11/08 09:00:34;;;;;;;1.55;1.02;;;;;;;;;;5034915;28;20321;-83
2022/11/08 09:05:33;;;;;;;1.20;1.10;;;;;;;;;;5074699;28;20213;-81
2022/11/08 09:08:01;;;;;;;1.35;1.00;;;;;;;;;;5074849;28;20201;-83
2022/11/08 09:10:29;;;;;;;1.25;1.15;;;;;;;;;;5074669;28;20659;-81
2022/11/08 09:12:57;;;;;;;1.67;1.27;;;;;;;;;;5074698;28;20197;-81
2022/11/08 09:15:25;;;;;;;4.90;2.42;;;;;;;;;;5074943;28;20227;-82
2022/11/08 09:17:54;;;;;;;1.40;0.90;;;;;;;;;;5074244;28;20303;-83
2022/11/08 09:20:22;;;;;;;1.58;1.20;;;;;;;;;;5074586;28;20292;-82
2022/11/08 09:22:50;;;;;;;1.25;1.08;;;;;;;;;;5074897;28;20318;-81
2022/11/08 09:25:18;;;;;;;2.08;1.00;;;;;;;;;;5074883;28;20756;-82
2022/11/08 09:27:45;;;;;;;2.20;1.15;;;;;;;;;;5075601;28;20205;-81
2022/11/08 09:30:13;;;;;;;1.92;1.40;;;;;;;;;;5074536;28;20225;-82
2022/11/08 09:32:42;;;;;;;1.67;1.58;;;;;;;;;;5078543;28;20207;-83
2022/11/08 09:35:09;;;;;;;0.80;0.80;;;;;;;;;;5078280;28;20298;-84
2022/11/08 09:37:37;;;;;;;1.90;1.30;;;;;;;;;;5078495;28;20284;-83
2022/11/08 09:40:05;;;;;;;1.13;0.93;;;;;;;;;;5078437;28;20284;-83
2022/11/08 09:42:52;;;;;;;1.45;1.20;;;;;;;;;;5079092;28;20741;-82
2022/11/08 09:45:24;;;;;;;1.20;1.10;;;;;;;;;;5079817;28;20655;-83
2022/11/08 09:47:58;;;;;;;1.42;0.90;;;;;;;;;;5079800;28;20207;-84
2022/11/08 09:50:31;;;;;;;1.20;1.10;;;;;;;;;;5079637;28;20205;-84
2022/11/08 09:53:09;;;;;;;1.23;1.13;;;;;;;;;;5080683;28;20243;-82
2022/11/08 09:55:39;;;;;;;1.23;1.20;;;;;;;;;;5078814;28;20189;-81
2022/11/08 09:58:19;;;;;;;1.33;1.25;;;;;;;;;;5080958;28;20295;-82
2022/11/08 10:00:49;;;;;;;1.02;1.02;;;;;;;;;;5079728;28;20670;-83
2022/11/08 10:03:20;;;;;;;1.30;1.20;;;;;;;;;;5079393;28;20205;-84
2022/11/08 10:06:00;;;;;;;1.48;1.38;;;;;;;;;;5078340;28;20228;-82
2022/11/08 10:08:34;;;;;;;1.33;1.20;;;;;;;;;;5077878;28;20181;-82
2022/11/08 10:11:25;;;;;;;1.35;1.23;;;;;;;;;;5079149;28;20657;-84
2022/11/08 10:14:06;;;;;;;1.15;1.10;;;;;;;;;;5080389;28;20284;-82
2022/11/08 10:16:39;;;;;;;1.38;1.27;;;;;;;;;;5077902;28;20215;-82
2022/11/08 10:19:49;;;;;;;2.08;1.10;;;;;;;;;;5078804;28;20257;-82
2022/11/08 10:22:25;;;;;;;2.60;1.92;;;;;;;;;;5078846;28;20338;-82
2022/11/08 10:24:57;;;;;;;6.78;2.42;;;;;;;;;;5078145;28;20307;-82
2022/11/08 10:27:33;;;;;;;1.20;1.10;;;;;;;;;;5078711;28;20276;-83
2022/11/08 10:30:04;;;;;;;2.38;1.23;;;;;;;;;;5078079;28;20640;-81
2022/11/08 10:32:33;;;;;;;1.42;1.33;;;;;;;;;;5078724;28;20252;-81
2022/11/08 10:35:12;;;;;;;2.22;1.15;;;;;;;;;;5077486;28;20899;-81
2022/11/08 10:37:42;;;;;;;1.75;1.38;;;;;;;;;;5077662;28;20200;-82
2022/11/08 10:40:17;;;;;;;2.13;1.05;;;;;;;;;;5077110;28;20295;-82
2022/11/08 10:42:47;;;;;;;1.25;0.98;;;;;;;;;;5076809;28;20185;-83
2022/11/08 10:45:14;;;;;;;1.58;1.17;;;;;;;;;;5076421;28;20362;-82
2022/11/08 10:47:44;;;;;;;3.42;1.10;;;;;;;;;;5077307;28;20643;-82
2022/11/08 10:50:19;;;;;;;1.20;1.00;;;;;;;;;;5077848;28;20251;-83
2022/11/08 10:52:53;;;;;;;0.88;0.80;;;;;;;;;;5077318;28;20272;-82
2022/11/08 10:55:27;;;;;;;1.50;1.35;;;;;;;;;;5076689;28;20315;-82
2022/11/08 10:57:54;;;;;;;0.88;0.88;;;;;;;;;;5077258;28;20269;-82
2022/11/08 11:00:29;;;;;;;2.50;1.40;;;;;;;;;;5076673;28;20296;-81
2022/11/08 11:02:59;;;;;;;1.08;0.98;;;;;;;;;;5076751;28;20280;-81
2022/11/08 11:05:34;;;;;;;2.58;1.30;;;;;;;;;;5077012;28;20315;-82
2022/11/08 11:08:13;;;;;;;1.38;1.10;;;;;;;;;;5077030;28;20291;-81
2022/11/08 11:10:42;;;;;;;1.00;1.00;;;;;;;;;;5075608;28;20205;-81
2022/11/08 11:13:13;;;;;;;1.10;1.10;;;;;;;;;;5077499;28;20732;-82
2022/11/08 11:15:47;;;;;;;1.27;1.00;;;;;;;;;;5075739;28;20292;-81
2022/11/08 11:18:27;;;;;;;1.10;1.10;;;;;;;;;;5077968;28;20186;-83
2022/11/08 11:21:04;;;;;;;3.33;1.52;;;;;;;;;;5083948;28;20197;-85
2022/11/08 11:23:38;;;;;;;1.00;1.00;;;;;;;;;;5083336;28;20279;-83
2022/11/08 11:26:07;;;;;;;2.22;1.30;;;;;;;;;;5083664;28;20217;-84
2022/11/08 11:28:35;;;;;;;1.52;1.02;;;;;;;;;;5084343;28;20200;-83
2022/11/08 11:31:15;;;;;;;0.98;0.93;;;;;;;;;;5083673;28;20228;-83
2022/11/08 11:33:46;;;;;;;2.80;1.00;;;;;;;;;;5084118;28;20243;-83
2022/11/08 11:36:19;;;;;;;1.42;1.00;;;;;;;;;;5083493;28;20567;-84
2022/11/08 11:38:53;;;;;;;1.05;0.95;;;;;;;;;;5084149;28;20192;-83
2022/11/08 11:41:28;;;;;;;0.93;0.93;;;;;;;;;;5083356;28;20295;-83
2022/11/08 11:44:05;;;;;;;2.45;0.90;;;;;;;;;;5084480;28;20243;-84
2022/11/08 11:46:51;;;;;;;3.80;1.10;;;;;;;;;;5083378;28;20247;-85
2022/11/08 11:49:22;;;;;;;0.90;0.90;;;;;;;;;;5083168;28;20193;-84
2022/11/08 11:51:53;;;;;;;0.93;0.93;;;;;;;;;;5082824;28;20229;-83
2022/11/08 11:54:25;;;;;;;1.23;1.13;;;;;;;;;;5083871;28;20889;-83
2022/11/08 11:56:58;;;;;;;0.70;0.70;;;;;;;;;;5083704;28;20221;-83
2022/11/08 11:59:50;;;;;;;1.65;1.30;;;;;;;;;;5083013;28;20264;-83
2022/11/08 12:02:57;;;;;;;0.90;0.90;;;;;;;;;;5071362;28;20269;-83
2022/11/08 12:05:50;;;;;;;1.33;1.02;;;;;;;;;;5082267;28;20256;-82
2022/11/08 12:08:39;;;;;;;0.85;0.80;;;;;;;;;;5083594;28;20233;-83
2022/11/08 12:11:37;;;;;;;2.10;1.38;;;;;;;;;;5082432;28;20237;-83
2022/11/08 12:14:25;;;;;;;0.80;0.80;;;;;;;;;;5072310;28;20590;-83
2022/11/08 12:17:00;;;;;;;1.20;1.13;;;;;;;;;;5083647;28;20276;-82
2022/11/08 12:19:41;;;;;;;1.42;0.90;;;;;;;;;;5083480;28;20275;-82
2022/11/08 12:22:27;;;;;;;0.70;0.70;;;;;;;;;;5083324;28;20272;-81
2022/11/08 12:25:03;;;;;;;2.08;1.00;;;;;;;;;;5082596;28;20307;-83
2022/11/08 12:27:41;;;;;;;1.10;1.10;;;;;;;;;;5083168;28;20195;-83
2022/11/08 12:30:12;;;;;;;0.95;0.90;;;;;;;;;;5082479;28;20220;-83
2022/11/08 12:33:05;;;;;;;1.52;1.05;;;;;;;;;;5083395;28;20312;-82
2022/11/08 12:35:40;;;;;;;0.82;0.82;;;;;;;;;;5084206;28;20642;-82
2022/11/08 12:38:21;;;;;;;1.00;1.00;;;;;;;;;;5082280;28;20207;-83
2022/11/08 12:40:56;;;;;;;1.80;1.00;;;;;;;;;;5084008;28;20258;-83
2022/11/08 12:43:39;;;;;;;0.95;0.95;;;;;;;;;;5083471;28;20612;-83
2022/11/08 12:46:11;;;;;;;1.38;1.10;;;;;;;;;;5082688;28;20597;-83
2022/11/08 12:49:05;;;;;;;1.15;1.05;;;;;;;;;;5081598;28;20178;-82
2022/11/08 12:51:48;;;;;;;1.00;0.90;;;;;;;;;;5072877;28;20293;-82
2022/11/08 12:54:23;;;;;;;2.38;1.05;;;;;;;;;;5083312;28;20224;-81
2022/11/08 12:56:54;;;;;;;1.33;1.20;;;;;;;;;;5083228;28;20204;-82
2022/11/08 12:59:26;;;;;;;1.42;1.33;;;;;;;;;;5083350;28;20265;-83
2022/11/08 13:01:54;;;;;;;1.23;1.15;;;;;;;;;;5083383;28;20204;-83
2022/11/08 13:04:38;;;;;;;1.45;1.38;;;;;;;;;;5082507;28;20252;-82
2022/11/08 13:07:17;;;;;;;1.60;0.88;;;;;;;;;;5082667;28;20192;-82
2022/11/08 13:09:51;;;;;;;3.65;1.02;;;;;;;;;;5083040;28;20247;-82
2022/11/08 13:12:38;;;;;;;1.25;1.15;;;;;;;;;;5083562;28;20247;-82
2022/11/08 13:15:18;;;;;;;1.52;1.23;;;;;;;;;;5081972;28;20216;-82
2022/11/08 13:18:22;;;;;;;1.30;1.10;;;;;;;;;;5083851;28;20634;-83
2022/11/08 13:20:50;;;;;;;0.73;0.73;;;;;;;;;;5081694;28;20204;-83
2022/11/08 13:23:32;;;;;;;1.30;1.20;;;;;;;;;;5082794;28;20288;-81
2022/11/08 13:26:19;;;;;;;2.47;1.48;;;;;;;;;;5082633;28;20570;-83
2022/11/08 13:28:48;;;;;;;1.55;0.90;;;;;;;;;;5082017;28;20243;-82
2022/11/08 13:31:26;;;;;;;0.82;0.82;;;;;;;;;;5078128;28;20205;-82
2022/11/08 13:34:19;;;;;;;1.40;1.27;;;;;;;;;;5080153;28;20323;-82
2022/11/08 13:37:22;;;;;;;1.25;1.15;;;;;;;;;;5082109;28;20204;-81
2022/11/08 13:40:03;;;;;;;1.67;0.90;;;;;;;;;;5082136;28;20268;-84
2022/11/08 13:42:40;;;;;;;0.90;0.90;;;;;;;;;;5082575;28;20272;-83
2022/11/08 13:45:32;;;;;;;2.28;1.00;;;;;;;;;;5083106;28;20251;-84
2022/11/08 13:48:37;;;;;;;1.42;1.13;;;;;;;;;;5082691;28;20678;-81
2022/11/08 13:51:26;;;;;;;2.10;1.13;;;;;;;;;;5083767;28;20272;-83
2022/11/08 13:53:59;;;;;;;1.50;1.00;;;;;;;;;;5083437;28;20713;-82
2022/11/08 13:56:51;;;;;;;1.42;1.10;;;;;;;;;;5083515;28;20253;-82
2022/11/08 13:59:58;;;;;;;1.05;1.00;;;;;;;;;;5083669;28;20217;-82
2022/11/08 14:02:45;;;;;;;6.55;1.25;;;;;;;;;;5081629;28;20229;-83
2022/11/08 14:05:44;;;;;;;0.90;0.90;;;;;;;;;;5083388;28;20260;-81
2022/11/08 14:08:21;;;;;;;1.65;1.20;;;;;;;;;;5083522;28;20227;-85
2022/11/08 14:11:21;;;;;;;1.55;1.10;;;;;;;;;;5079831;28;20665;-82
2022/11/08 14:14:18;;;;;;;1.17;1.08;;;;;;;;;;5059235;28;20225;-81
2022/11/08 14:17:26;;;;;;;1.13;1.00;;;;;;;;;;5061978;28;20239;-83
2022/11/08 14:19:59;;;;;;;2.15;1.27;;;;;;;;;;5051807;28;20201;-82
2022/11/08 14:22:29;;;;;;;1.45;0.95;;;;;;;;;;5065768;28;20568;-82
2022/11/08 14:25:07;;;;;;;4.60;1.27;;;;;;;;;;5065621;28;20587;-81
2022/11/08 14:27:37;;;;;;;1.52;1.08;;;;;;;;;;5065012;28;20218;-85
2022/11/08 14:30:10;;;;;;;1.73;0.88;;;;;;;;;;5065138;28;20292;-81
2022/11/08 14:32:38;;;;;;;1.45;1.10;;;;;;;;;;5066023;28;20276;-83
2022/11/08 14:35:20;;;;;;;2.08;1.00;;;;;;;;;;5064504;28;20324;-83
2022/11/08 14:37:48;;;;;;;2.25;1.00;;;;;;;;;;5066199;28;20186;-80
2022/11/08 14:40:23;;;;;;;1.20;1.10;;;;;;;;;;5065748;28;20300;-82
2022/11/08 14:42:51;;;;;;;1.17;1.00;;;;;;;;;;5066031;28;20229;-82
2022/11/08 14:45:20;;;;;;;1.20;1.10;;;;;;;;;;5066116;28;20234;-82
2022/11/08 14:47:53;;;;;;;2.97;1.20;;;;;;;;;;5064694;28;20284;-83
2022/11/08 14:50:24;;;;;;;1.10;1.00;;;;;;;;;;5065100;28;20202;-83
2022/11/08 14:52:51;;;;;;;1.27;1.15;;;;;;;;;;5065046;28;20241;-83
2022/11/08 14:55:25;;;;;;;1.23;1.05;;;;;;;;;;5066109;28;20226;-84
2022/11/08 14:57:52;;;;;;;1.00;1.00;;;;;;;;;;5065630;28;20217;-81
2022/11/08 15:00:23;;;;;;;2.13;0.93;;;;;;;;;;5065442;28;20213;-82
2022/11/08 15:02:55;;;;;;;2.30;1.27;;;;;;;;;;5064244;28;20221;-82
2022/11/08 15:05:39;;;;;;;1.95;1.30;;;;;;;;;;5090915;22;20382;-83
2022/11/08 15:08:16;;;;;;;1.00;1.00;;;;;;;;;;5082680;28;20266;-82
2022/11/08 15:10:54;;;;;;;1.30;1.20;;;;;;;;;;5080182;28;20696;-83
2022/11/08 15:13:22;;;;;;;2.25;1.20;;;;;;;;;;5080366;28;20225;-84
2022/11/08 15:15:54;;;;;;;1.52;1.35;;;;;;;;;;5078750;28;20244;-83
2022/11/08 15:18:27;;;;;;;1.88;1.08;;;;;;;;;;5079239;28;20263;-83
2022/11/08 15:20:58;;;;;;;1.13;1.10;;;;;;;;;;5079595;28;20235;-83
2022/11/08 15:23:42;;;;;;;1.27;1.17;;;;;;;;;;5079214;28;20375;-83
2022/11/08 15:26:22;;;;;;;2.90;1.40;;;;;;;;;;5079253;28;20208;-84
2022/11/08 15:29:02;;;;;;;1.20;1.15;;;;;;;;;;5077581;28;20713;-83
2022/11/08 15:31:34;;;;;;;1.33;1.23;;;;;;;;;;5065014;28;20288;-83
2022/11/08 15:34:01;;;;;;;1.85;1.33;;;;;;;;;;5058820;28;20646;-82
2022/11/08 15:36:35;;;;;;;0.98;0.98;;;;;;;;;;5057309;28;20288;-83
2022/11/08 15:39:04;;;;;;;1.10;1.00;;;;;;;;;;5057904;28;20202;-83